sensor_id;sensor_type;location;lat;lon;timestamp;P1;durP1;ratioP1;P2;durP2;ratioP2
61572;SDS011;47465;43.094;12.434;2023-07-31T00:01:37;5.88;;;3.17;;
61572;SDS011;47465;43.094;12.434;2023-07-31T00:04:03;6.55;;;3.30;;
61572;SDS011;47465;43.094;12.434;2023-07-31T00:06:29;8.25;;;3.15;;
61572;SDS011;47465;43.094;12.434;2023-07-31T00:08:55;9.18;;;3.50;;
61572;SDS011;47465;43.094;12.434;2023-07-31T00:11:21;6.78;;;3.53;;
61572;SDS011;47465;43.094;12.434;2023-07-31T00:13:46;8.95;;;3.25;;
61572;SDS011;47465;43.094;12.434;2023-07-31T00:16:12;6.43;;;3.47;;
61572;SDS011;47465;43.094;12.434;2023-07-31T00:18:40;5.95;;;3.33;;
61572;SDS011;47465;43.094;12.434;2023-07-31T00:21:06;5.85;;;3.08;;
61572;SDS011;47465;43.094;12.434;2023-07-31T00:23:31;7.05;;;3.25;;
61572;SDS011;47465;43.094;12.434;2023-07-31T00:25:57;7.30;;;3.35;;
61572;SDS011;47465;43.094;12.434;2023-07-31T00:28:23;6.55;;;3.30;;
61572;SDS011;47465;43.094;12.434;2023-07-31T00:30:49;5.50;;;3.35;;
61572;SDS011;47465;43.094;12.434;2023-07-31T00:33:15;5.22;;;3.40;;
61572;SDS011;47465;43.094;12.434;2023-07-31T00:35:42;6.75;;;3.65;;
61572;SDS011;47465;43.094;12.434;2023-07-31T00:38:08;8.18;;;4.13;;
61572;SDS011;47465;43.094;12.434;2023-07-31T00:40:34;8.07;;;3.83;;
61572;SDS011;47465;43.094;12.434;2023-07-31T00:43:02;6.90;;;3.70;;
61572;SDS011;47465;43.094;12.434;2023-07-31T00:45:28;7.20;;;4.10;;
61572;SDS011;47465;43.094;12.434;2023-07-31T00:47:54;9.45;;;4.25;;
61572;SDS011;47465;43.094;12.434;2023-07-31T00:50:21;7.05;;;3.78;;
61572;SDS011;47465;43.094;12.434;2023-07-31T00:52:49;9.07;;;4.10;;
61572;SDS011;47465;43.094;12.434;2023-07-31T00:55:15;8.15;;;4.00;;
61572;SDS011;47465;43.094;12.434;2023-07-31T00:57:41;9.80;;;4.38;;
61572;SDS011;47465;43.094;12.434;2023-07-31T01:00:08;8.52;;;4.35;;
61572;SDS011;47465;43.094;12.434;2023-07-31T01:02:34;8.40;;;4.57;;
61572;SDS011;47465;43.094;12.434;2023-07-31T01:05:01;9.38;;;4.30;;
61572;SDS011;47465;43.094;12.434;2023-07-31T01:07:30;10.90;;;4.55;;
61572;SDS011;47465;43.094;12.434;2023-07-31T01:10:07;9.18;;;4.22;;
61572;SDS011;47465;43.094;12.434;2023-07-31T01:12:42;9.93;;;4.43;;
61572;SDS011;47465;43.094;12.434;2023-07-31T01:15:10;6.78;;;3.97;;
61572;SDS011;47465;43.094;12.434;2023-07-31T01:17:36;9.90;;;4.25;;
61572;SDS011;47465;43.094;12.434;2023-07-31T01:20:03;7.57;;;4.47;;
61572;SDS011;47465;43.094;12.434;2023-07-31T01:22:39;9.18;;;4.10;;
61572;SDS011;47465;43.094;12.434;2023-07-31T01:25:24;10.18;;;4.60;;
61572;SDS011;47465;43.094;12.434;2023-07-31T01:28:07;8.48;;;4.43;;
61572;SDS011;47465;43.094;12.434;2023-07-31T01:30:37;8.98;;;4.43;;
61572;SDS011;47465;43.094;12.434;2023-07-31T01:33:08;11.98;;;4.72;;
61572;SDS011;47465;43.094;12.434;2023-07-31T01:35:35;8.52;;;4.45;;
61572;SDS011;47465;43.094;12.434;2023-07-31T01:38:01;8.90;;;4.32;;
61572;SDS011;47465;43.094;12.434;2023-07-31T01:40:27;9.73;;;4.50;;
61572;SDS011;47465;43.094;12.434;2023-07-31T01:42:53;8.38;;;4.35;;
61572;SDS011;47465;43.094;12.434;2023-07-31T01:45:20;7.35;;;4.07;;
61572;SDS011;47465;43.094;12.434;2023-07-31T01:47:46;9.20;;;4.40;;
61572;SDS011;47465;43.094;12.434;2023-07-31T01:50:12;9.48;;;4.97;;
61572;SDS011;47465;43.094;12.434;2023-07-31T01:52:38;7.57;;;4.57;;
61572;SDS011;47465;43.094;12.434;2023-07-31T01:55:04;10.82;;;5.20;;
61572;SDS011;47465;43.094;12.434;2023-07-31T01:57:33;8.95;;;4.65;;
61572;SDS011;47465;43.094;12.434;2023-07-31T02:02:26;9.95;;;4.22;;
61572;SDS011;47465;43.094;12.434;2023-07-31T02:04:52;9.40;;;4.45;;
61572;SDS011;47465;43.094;12.434;2023-07-31T02:07:17;8.73;;;4.05;;
61572;SDS011;47465;43.094;12.434;2023-07-31T02:09:43;8.40;;;4.15;;
61572;SDS011;47465;43.094;12.434;2023-07-31T02:12:09;7.88;;;4.35;;
61572;SDS011;47465;43.094;12.434;2023-07-31T02:14:35;12.13;;;4.55;;
61572;SDS011;47465;43.094;12.434;2023-07-31T02:17:01;8.27;;;4.30;;
61572;SDS011;47465;43.094;12.434;2023-07-31T02:19:28;10.70;;;5.38;;
61572;SDS011;47465;43.094;12.434;2023-07-31T02:21:54;11.57;;;5.10;;
61572;SDS011;47465;43.094;12.434;2023-07-31T02:24:20;7.55;;;4.43;;
61572;SDS011;47465;43.094;12.434;2023-07-31T02:26:46;11.98;;;4.72;;
61572;SDS011;47465;43.094;12.434;2023-07-31T02:29:11;11.43;;;4.93;;
61572;SDS011;47465;43.094;12.434;2023-07-31T02:31:37;14.65;;;4.90;;
61572;SDS011;47465;43.094;12.434;2023-07-31T02:34:03;13.15;;;4.55;;
61572;SDS011;47465;43.094;12.434;2023-07-31T02:36:30;12.85;;;4.80;;
61572;SDS011;47465;43.094;12.434;2023-07-31T02:38:56;8.38;;;4.22;;
61572;SDS011;47465;43.094;12.434;2023-07-31T02:41:22;14.15;;;4.82;;
61572;SDS011;47465;43.094;12.434;2023-07-31T02:43:48;9.15;;;4.90;;
61572;SDS011;47465;43.094;12.434;2023-07-31T02:46:14;9.70;;;4.80;;
61572;SDS011;47465;43.094;12.434;2023-07-31T02:48:39;9.90;;;4.70;;
61572;SDS011;47465;43.094;12.434;2023-07-31T02:51:05;11.52;;;5.20;;
61572;SDS011;47465;43.094;12.434;2023-07-31T02:53:33;10.45;;;5.13;;
61572;SDS011;47465;43.094;12.434;2023-07-31T02:55:58;8.73;;;5.22;;
61572;SDS011;47465;43.094;12.434;2023-07-31T02:58:24;12.45;;;5.20;;
61572;SDS011;47465;43.094;12.434;2023-07-31T03:00:50;11.48;;;5.03;;
61572;SDS011;47465;43.094;12.434;2023-07-31T03:03:16;11.52;;;4.95;;
61572;SDS011;47465;43.094;12.434;2023-07-31T03:05:41;10.63;;;4.85;;
61572;SDS011;47465;43.094;12.434;2023-07-31T03:08:07;13.63;;;5.28;;
61572;SDS011;47465;43.094;12.434;2023-07-31T03:10:35;12.23;;;5.60;;
61572;SDS011;47465;43.094;12.434;2023-07-31T03:13:00;9.02;;;4.70;;
61572;SDS011;47465;43.094;12.434;2023-07-31T03:15:26;12.55;;;4.93;;
61572;SDS011;47465;43.094;12.434;2023-07-31T03:17:52;9.73;;;5.10;;
61572;SDS011;47465;43.094;12.434;2023-07-31T03:20:18;10.35;;;4.93;;
61572;SDS011;47465;43.094;12.434;2023-07-31T03:22:44;9.48;;;4.93;;
61572;SDS011;47465;43.094;12.434;2023-07-31T03:25:09;10.75;;;5.28;;
61572;SDS011;47465;43.094;12.434;2023-07-31T03:27:37;12.10;;;5.07;;
61572;SDS011;47465;43.094;12.434;2023-07-31T03:30:06;10.02;;;5.10;;
61572;SDS011;47465;43.094;12.434;2023-07-31T03:32:35;10.82;;;4.90;;
61572;SDS011;47465;43.094;12.434;2023-07-31T03:35:00;10.45;;;5.07;;
61572;SDS011;47465;43.094;12.434;2023-07-31T03:37:27;13.35;;;5.38;;
61572;SDS011;47465;43.094;12.434;2023-07-31T03:39:52;11.93;;;5.45;;
61572;SDS011;47465;43.094;12.434;2023-07-31T03:42:18;9.57;;;5.20;;
61572;SDS011;47465;43.094;12.434;2023-07-31T03:44:46;10.70;;;5.22;;
61572;SDS011;47465;43.094;12.434;2023-07-31T03:47:11;13.32;;;5.75;;
61572;SDS011;47465;43.094;12.434;2023-07-31T03:49:37;12.57;;;5.50;;
61572;SDS011;47465;43.094;12.434;2023-07-31T03:52:03;13.50;;;5.53;;
61572;SDS011;47465;43.094;12.434;2023-07-31T03:54:29;14.07;;;5.78;;
61572;SDS011;47465;43.094;12.434;2023-07-31T03:56:55;9.43;;;5.28;;
61572;SDS011;47465;43.094;12.434;2023-07-31T03:59:21;12.30;;;5.13;;
61572;SDS011;47465;43.094;12.434;2023-07-31T04:01:48;10.07;;;5.53;;
61572;SDS011;47465;43.094;12.434;2023-07-31T04:04:14;12.25;;;5.63;;
61572;SDS011;47465;43.094;12.434;2023-07-31T04:06:40;11.25;;;4.82;;
61572;SDS011;47465;43.094;12.434;2023-07-31T04:09:06;15.07;;;6.00;;
61572;SDS011;47465;43.094;12.434;2023-07-31T04:11:31;11.75;;;5.50;;
61572;SDS011;47465;43.094;12.434;2023-07-31T04:13:57;12.23;;;5.40;;
61572;SDS011;47465;43.094;12.434;2023-07-31T04:16:23;10.90;;;5.15;;
61572;SDS011;47465;43.094;12.434;2023-07-31T04:18:50;10.50;;;5.28;;
61572;SDS011;47465;43.094;12.434;2023-07-31T04:21:16;12.32;;;5.50;;
61572;SDS011;47465;43.094;12.434;2023-07-31T04:23:42;10.18;;;5.35;;
61572;SDS011;47465;43.094;12.434;2023-07-31T04:26:08;11.55;;;6.13;;
61572;SDS011;47465;43.094;12.434;2023-07-31T04:28:34;12.20;;;5.95;;
61572;SDS011;47465;43.094;12.434;2023-07-31T04:31:00;13.48;;;5.95;;
61572;SDS011;47465;43.094;12.434;2023-07-31T04:33:26;12.57;;;5.70;;
61572;SDS011;47465;43.094;12.434;2023-07-31T04:35:53;13.27;;;5.90;;
61572;SDS011;47465;43.094;12.434;2023-07-31T04:38:19;13.38;;;6.85;;
61572;SDS011;47465;43.094;12.434;2023-07-31T04:40:46;15.40;;;6.07;;
61572;SDS011;47465;43.094;12.434;2023-07-31T04:43:12;11.45;;;5.80;;
61572;SDS011;47465;43.094;12.434;2023-07-31T04:45:38;13.27;;;6.15;;
61572;SDS011;47465;43.094;12.434;2023-07-31T04:48:04;16.20;;;6.40;;
61572;SDS011;47465;43.094;12.434;2023-07-31T04:50:30;11.82;;;5.97;;
61572;SDS011;47465;43.094;12.434;2023-07-31T04:52:57;16.98;;;5.90;;
61572;SDS011;47465;43.094;12.434;2023-07-31T04:55:23;12.20;;;6.15;;
61572;SDS011;47465;43.094;12.434;2023-07-31T04:57:49;14.68;;;6.25;;
61572;SDS011;47465;43.094;12.434;2023-07-31T05:00:15;10.75;;;5.57;;
61572;SDS011;47465;43.094;12.434;2023-07-31T05:02:41;17.67;;;6.20;;
61572;SDS011;47465;43.094;12.434;2023-07-31T05:05:07;13.52;;;5.95;;
61572;SDS011;47465;43.094;12.434;2023-07-31T05:07:33;13.73;;;5.95;;
61572;SDS011;47465;43.094;12.434;2023-07-31T05:10:00;12.60;;;6.25;;
61572;SDS011;47465;43.094;12.434;2023-07-31T05:12:26;17.10;;;6.50;;
61572;SDS011;47465;43.094;12.434;2023-07-31T05:14:52;13.70;;;6.82;;
61572;SDS011;47465;43.094;12.434;2023-07-31T05:17:18;14.10;;;6.00;;
61572;SDS011;47465;43.094;12.434;2023-07-31T05:19:44;14.90;;;6.20;;
61572;SDS011;47465;43.094;12.434;2023-07-31T05:22:10;20.35;;;6.65;;
61572;SDS011;47465;43.094;12.434;2023-07-31T05:24:35;15.48;;;6.60;;
61572;SDS011;47465;43.094;12.434;2023-07-31T05:27:03;14.65;;;6.72;;
61572;SDS011;47465;43.094;12.434;2023-07-31T05:29:29;17.60;;;6.27;;
61572;SDS011;47465;43.094;12.434;2023-07-31T05:31:55;14.52;;;6.68;;
61572;SDS011;47465;43.094;12.434;2023-07-31T05:34:21;16.63;;;6.47;;
61572;SDS011;47465;43.094;12.434;2023-07-31T05:36:47;16.52;;;6.50;;
61572;SDS011;47465;43.094;12.434;2023-07-31T05:39:13;13.90;;;6.25;;
61572;SDS011;47465;43.094;12.434;2023-07-31T05:41:38;13.85;;;6.25;;
61572;SDS011;47465;43.094;12.434;2023-07-31T05:44:06;15.70;;;6.22;;
61572;SDS011;47465;43.094;12.434;2023-07-31T05:46:32;10.18;;;6.20;;
61572;SDS011;47465;43.094;12.434;2023-07-31T05:48:58;12.65;;;6.93;;
61572;SDS011;47465;43.094;12.434;2023-07-31T05:51:26;13.43;;;6.47;;
61572;SDS011;47465;43.094;12.434;2023-07-31T05:53:52;10.73;;;5.55;;
61572;SDS011;47465;43.094;12.434;2023-07-31T05:56:17;13.30;;;6.45;;
61572;SDS011;47465;43.094;12.434;2023-07-31T05:58:43;15.88;;;5.90;;
61572;SDS011;47465;43.094;12.434;2023-07-31T06:01:10;19.83;;;6.57;;
61572;SDS011;47465;43.094;12.434;2023-07-31T06:03:36;20.20;;;6.60;;
61572;SDS011;47465;43.094;12.434;2023-07-31T06:06:02;18.40;;;6.60;;
61572;SDS011;47465;43.094;12.434;2023-07-31T06:08:28;11.43;;;5.60;;
61572;SDS011;47465;43.094;12.434;2023-07-31T06:10:54;12.27;;;6.13;;
61572;SDS011;47465;43.094;12.434;2023-07-31T06:13:20;16.23;;;6.85;;
61572;SDS011;47465;43.094;12.434;2023-07-31T06:15:45;11.77;;;5.93;;
61572;SDS011;47465;43.094;12.434;2023-07-31T06:18:13;10.80;;;5.32;;
61572;SDS011;47465;43.094;12.434;2023-07-31T06:20:39;12.57;;;5.75;;
61572;SDS011;47465;43.094;12.434;2023-07-31T06:23:05;12.82;;;6.05;;
61572;SDS011;47465;43.094;12.434;2023-07-31T06:25:31;14.05;;;6.32;;
61572;SDS011;47465;43.094;12.434;2023-07-31T06:27:57;15.63;;;6.47;;
61572;SDS011;47465;43.094;12.434;2023-07-31T06:30:23;12.65;;;6.15;;
61572;SDS011;47465;43.094;12.434;2023-07-31T06:32:49;11.43;;;5.72;;
61572;SDS011;47465;43.094;12.434;2023-07-31T06:35:16;13.50;;;6.25;;
61572;SDS011;47465;43.094;12.434;2023-07-31T06:37:42;16.15;;;6.35;;
61572;SDS011;47465;43.094;12.434;2023-07-31T06:40:09;13.48;;;6.32;;
61572;SDS011;47465;43.094;12.434;2023-07-31T06:42:36;13.88;;;5.80;;
61572;SDS011;47465;43.094;12.434;2023-07-31T06:45:02;13.27;;;6.05;;
61572;SDS011;47465;43.094;12.434;2023-07-31T06:47:28;11.90;;;6.47;;
61572;SDS011;47465;43.094;12.434;2023-07-31T06:49:54;12.20;;;5.97;;
61572;SDS011;47465;43.094;12.434;2023-07-31T06:52:22;11.68;;;6.05;;
61572;SDS011;47465;43.094;12.434;2023-07-31T06:54:57;13.02;;;5.55;;
61572;SDS011;47465;43.094;12.434;2023-07-31T06:57:26;11.50;;;5.55;;
61572;SDS011;47465;43.094;12.434;2023-07-31T06:59:52;14.68;;;5.82;;
61572;SDS011;47465;43.094;12.434;2023-07-31T07:02:18;10.88;;;5.32;;
61572;SDS011;47465;43.094;12.434;2023-07-31T07:04:44;13.85;;;5.65;;
61572;SDS011;47465;43.094;12.434;2023-07-31T07:07:09;10.23;;;5.40;;
61572;SDS011;47465;43.094;12.434;2023-07-31T07:09:37;10.25;;;5.10;;
61572;SDS011;47465;43.094;12.434;2023-07-31T07:12:03;11.60;;;5.57;;
61572;SDS011;47465;43.094;12.434;2023-07-31T07:14:29;12.73;;;5.80;;
61572;SDS011;47465;43.094;12.434;2023-07-31T07:16:55;10.30;;;5.47;;
61572;SDS011;47465;43.094;12.434;2023-07-31T07:19:20;11.23;;;5.63;;
61572;SDS011;47465;43.094;12.434;2023-07-31T07:21:46;11.45;;;5.43;;
61572;SDS011;47465;43.094;12.434;2023-07-31T07:24:12;8.75;;;5.10;;
61572;SDS011;47465;43.094;12.434;2023-07-31T07:26:39;11.23;;;5.78;;
61572;SDS011;47465;43.094;12.434;2023-07-31T07:29:05;12.68;;;5.35;;
61572;SDS011;47465;43.094;12.434;2023-07-31T07:31:33;9.50;;;5.13;;
61572;SDS011;47465;43.094;12.434;2023-07-31T07:33:59;9.45;;;4.97;;
61572;SDS011;47465;43.094;12.434;2023-07-31T07:36:24;10.27;;;5.40;;
61572;SDS011;47465;43.094;12.434;2023-07-31T07:38:52;12.17;;;5.40;;
61572;SDS011;47465;43.094;12.434;2023-07-31T07:41:20;12.15;;;5.85;;
61572;SDS011;47465;43.094;12.434;2023-07-31T07:43:50;10.60;;;5.60;;
61572;SDS011;47465;43.094;12.434;2023-07-31T07:46:17;14.18;;;5.72;;
61572;SDS011;47465;43.094;12.434;2023-07-31T07:48:43;12.20;;;5.43;;
61572;SDS011;47465;43.094;12.434;2023-07-31T07:51:08;12.68;;;5.63;;
61572;SDS011;47465;43.094;12.434;2023-07-31T07:53:34;18.55;;;5.55;;
61572;SDS011;47465;43.094;12.434;2023-07-31T07:56:00;13.10;;;5.50;;
61572;SDS011;47465;43.094;12.434;2023-07-31T07:58:26;13.55;;;5.35;;
61572;SDS011;47465;43.094;12.434;2023-07-31T08:00:53;10.43;;;5.63;;
61572;SDS011;47465;43.094;12.434;2023-07-31T08:03:19;12.50;;;5.15;;
61572;SDS011;47465;43.094;12.434;2023-07-31T08:05:45;10.85;;;4.90;;
61572;SDS011;47465;43.094;12.434;2023-07-31T08:08:13;11.10;;;4.93;;
61572;SDS011;47465;43.094;12.434;2023-07-31T08:10:40;11.68;;;4.75;;
61572;SDS011;47465;43.094;12.434;2023-07-31T08:13:06;11.68;;;4.95;;
61572;SDS011;47465;43.094;12.434;2023-07-31T08:15:32;9.27;;;4.43;;
61572;SDS011;47465;43.094;12.434;2023-07-31T08:17:59;7.88;;;4.22;;
61572;SDS011;47465;43.094;12.434;2023-07-31T08:20:26;8.15;;;3.80;;
61572;SDS011;47465;43.094;12.434;2023-07-31T08:22:52;9.13;;;4.28;;
61572;SDS011;47465;43.094;12.434;2023-07-31T08:25:18;7.72;;;4.10;;
61572;SDS011;47465;43.094;12.434;2023-07-31T08:27:44;6.30;;;3.83;;
61572;SDS011;47465;43.094;12.434;2023-07-31T08:30:11;7.65;;;3.97;;
61572;SDS011;47465;43.094;12.434;2023-07-31T08:32:37;7.85;;;4.22;;
61572;SDS011;47465;43.094;12.434;2023-07-31T08:35:05;9.40;;;4.20;;
61572;SDS011;47465;43.094;12.434;2023-07-31T08:37:31;11.77;;;4.78;;
61572;SDS011;47465;43.094;12.434;2023-07-31T08:39:56;12.75;;;4.80;;
61572;SDS011;47465;43.094;12.434;2023-07-31T08:42:23;8.35;;;4.55;;
61572;SDS011;47465;43.094;12.434;2023-07-31T08:44:50;6.20;;;3.78;;
61572;SDS011;47465;43.094;12.434;2023-07-31T08:47:17;10.15;;;4.28;;
61572;SDS011;47465;43.094;12.434;2023-07-31T08:49:44;7.18;;;3.78;;
61572;SDS011;47465;43.094;12.434;2023-07-31T08:52:13;10.07;;;4.30;;
61572;SDS011;47465;43.094;12.434;2023-07-31T08:54:40;8.73;;;4.20;;
61572;SDS011;47465;43.094;12.434;2023-07-31T08:57:06;8.70;;;4.10;;
61572;SDS011;47465;43.094;12.434;2023-07-31T08:59:34;11.45;;;4.22;;
61572;SDS011;47465;43.094;12.434;2023-07-31T09:02:03;8.18;;;3.72;;
61572;SDS011;47465;43.094;12.434;2023-07-31T09:04:31;9.52;;;4.47;;
61572;SDS011;47465;43.094;12.434;2023-07-31T09:07:00;11.80;;;4.30;;
61572;SDS011;47465;43.094;12.434;2023-07-31T09:09:29;8.20;;;4.10;;
61572;SDS011;47465;43.094;12.434;2023-07-31T09:11:55;7.47;;;4.40;;
61572;SDS011;47465;43.094;12.434;2023-07-31T09:14:22;6.75;;;4.22;;
61572;SDS011;47465;43.094;12.434;2023-07-31T09:16:53;8.43;;;4.10;;
61572;SDS011;47465;43.094;12.434;2023-07-31T09:19:26;7.13;;;4.00;;
61572;SDS011;47465;43.094;12.434;2023-07-31T09:21:53;8.38;;;3.95;;
61572;SDS011;47465;43.094;12.434;2023-07-31T09:24:24;8.88;;;4.00;;
61572;SDS011;47465;43.094;12.434;2023-07-31T09:26:53;9.32;;;4.25;;
61572;SDS011;47465;43.094;12.434;2023-07-31T09:29:20;8.63;;;4.63;;
61572;SDS011;47465;43.094;12.434;2023-07-31T09:31:46;8.27;;;4.78;;
61572;SDS011;47465;43.094;12.434;2023-07-31T09:34:12;7.93;;;4.10;;
61572;SDS011;47465;43.094;12.434;2023-07-31T09:36:39;10.02;;;4.65;;
61572;SDS011;47465;43.094;12.434;2023-07-31T09:39:08;10.63;;;4.40;;
61572;SDS011;47465;43.094;12.434;2023-07-31T09:41:36;8.13;;;4.32;;
61572;SDS011;47465;43.094;12.434;2023-07-31T09:46:30;13.45;;;5.10;;
61572;SDS011;47465;43.094;12.434;2023-07-31T09:49:03;9.50;;;4.90;;
61572;SDS011;47465;43.094;12.434;2023-07-31T09:51:31;15.38;;;4.75;;
61572;SDS011;47465;43.094;12.434;2023-07-31T09:53:57;8.52;;;4.25;;
61572;SDS011;47465;43.094;12.434;2023-07-31T09:56:22;9.90;;;4.38;;
61572;SDS011;47465;43.094;12.434;2023-07-31T09:58:49;7.55;;;4.30;;
61572;SDS011;47465;43.094;12.434;2023-07-31T10:01:17;9.18;;;4.47;;
61572;SDS011;47465;43.094;12.434;2023-07-31T10:03:43;13.73;;;4.53;;
61572;SDS011;47465;43.094;12.434;2023-07-31T10:06:11;9.02;;;4.80;;
61572;SDS011;47465;43.094;12.434;2023-07-31T10:08:38;8.67;;;4.60;;
61572;SDS011;47465;43.094;12.434;2023-07-31T10:11:05;10.03;;;4.20;;
61572;SDS011;47465;43.094;12.434;2023-07-31T10:13:34;10.52;;;4.75;;
61572;SDS011;47465;43.094;12.434;2023-07-31T10:16:00;8.38;;;4.20;;
61572;SDS011;47465;43.094;12.434;2023-07-31T10:18:28;9.05;;;4.45;;
61572;SDS011;47465;43.094;12.434;2023-07-31T10:20:55;9.85;;;4.57;;
61572;SDS011;47465;43.094;12.434;2023-07-31T10:23:22;8.68;;;4.38;;
61572;SDS011;47465;43.094;12.434;2023-07-31T10:25:49;8.27;;;4.53;;
61572;SDS011;47465;43.094;12.434;2023-07-31T10:28:18;8.25;;;4.40;;
61572;SDS011;47465;43.094;12.434;2023-07-31T10:30:45;14.80;;;4.95;;
61572;SDS011;47465;43.094;12.434;2023-07-31T10:33:11;7.82;;;4.22;;
61572;SDS011;47465;43.094;12.434;2023-07-31T10:35:39;8.80;;;4.50;;
61572;SDS011;47465;43.094;12.434;2023-07-31T10:38:11;10.83;;;4.73;;
61572;SDS011;47465;43.094;12.434;2023-07-31T10:40:37;10.55;;;4.72;;
61572;SDS011;47465;43.094;12.434;2023-07-31T10:43:04;8.52;;;4.55;;
61572;SDS011;47465;43.094;12.434;2023-07-31T10:45:30;9.38;;;4.70;;
61572;SDS011;47465;43.094;12.434;2023-07-31T10:47:58;9.57;;;4.88;;
61572;SDS011;47465;43.094;12.434;2023-07-31T10:50:26;11.43;;;4.70;;
61572;SDS011;47465;43.094;12.434;2023-07-31T10:52:54;9.60;;;4.95;;
61572;SDS011;47465;43.094;12.434;2023-07-31T10:55:24;8.50;;;4.32;;
61572;SDS011;47465;43.094;12.434;2023-07-31T10:57:52;9.93;;;5.13;;
61572;SDS011;47465;43.094;12.434;2023-07-31T11:00:19;10.18;;;4.90;;
61572;SDS011;47465;43.094;12.434;2023-07-31T11:05:22;10.93;;;4.85;;
61572;SDS011;47465;43.094;12.434;2023-07-31T11:08:11;9.63;;;4.88;;
61572;SDS011;47465;43.094;12.434;2023-07-31T11:10:38;7.80;;;4.68;;
61572;SDS011;47465;43.094;12.434;2023-07-31T11:13:03;11.25;;;4.90;;
61572;SDS011;47465;43.094;12.434;2023-07-31T11:15:29;9.45;;;4.70;;
61572;SDS011;47465;43.094;12.434;2023-07-31T11:17:55;11.00;;;4.82;;
61572;SDS011;47465;43.094;12.434;2023-07-31T11:20:23;10.20;;;4.80;;
61572;SDS011;47465;43.094;12.434;2023-07-31T11:22:49;11.48;;;4.43;;
61572;SDS011;47465;43.094;12.434;2023-07-31T11:25:17;15.43;;;4.50;;
61572;SDS011;47465;43.094;12.434;2023-07-31T11:27:43;8.30;;;4.78;;
61572;SDS011;47465;43.094;12.434;2023-07-31T11:30:10;8.63;;;4.65;;
61572;SDS011;47465;43.094;12.434;2023-07-31T11:32:37;9.25;;;4.53;;
61572;SDS011;47465;43.094;12.434;2023-07-31T11:35:03;7.38;;;4.30;;
61572;SDS011;47465;43.094;12.434;2023-07-31T11:40:07;10.07;;;4.30;;
61572;SDS011;47465;43.094;12.434;2023-07-31T11:42:35;10.45;;;4.72;;
61572;SDS011;47465;43.094;12.434;2023-07-31T11:45:02;8.70;;;4.63;;
61572;SDS011;47465;43.094;12.434;2023-07-31T11:47:28;10.93;;;4.87;;
61572;SDS011;47465;43.094;12.434;2023-07-31T11:49:57;8.60;;;4.18;;
61572;SDS011;47465;43.094;12.434;2023-07-31T11:52:23;7.45;;;4.60;;
61572;SDS011;47465;43.094;12.434;2023-07-31T11:54:49;10.20;;;4.78;;
61572;SDS011;47465;43.094;12.434;2023-07-31T11:57:16;9.02;;;4.45;;
61572;SDS011;47465;43.094;12.434;2023-07-31T11:59:45;8.90;;;4.57;;
61572;SDS011;47465;43.094;12.434;2023-07-31T12:02:11;9.40;;;4.47;;
61572;SDS011;47465;43.094;12.434;2023-07-31T12:04:37;8.68;;;4.60;;
61572;SDS011;47465;43.094;12.434;2023-07-31T12:07:03;7.93;;;4.30;;
61572;SDS011;47465;43.094;12.434;2023-07-31T12:09:30;8.85;;;4.95;;
61572;SDS011;47465;43.094;12.434;2023-07-31T12:11:56;10.65;;;4.60;;
61572;SDS011;47465;43.094;12.434;2023-07-31T12:14:22;8.15;;;3.70;;
61572;SDS011;47465;43.094;12.434;2023-07-31T12:19:20;7.82;;;4.35;;
61572;SDS011;47465;43.094;12.434;2023-07-31T12:21:45;8.00;;;3.88;;
61572;SDS011;47465;43.094;12.434;2023-07-31T12:24:11;6.50;;;4.40;;
61572;SDS011;47465;43.094;12.434;2023-07-31T12:26:37;9.82;;;4.03;;
61572;SDS011;47465;43.094;12.434;2023-07-31T12:29:05;7.13;;;4.10;;
61572;SDS011;47465;43.094;12.434;2023-07-31T12:31:33;7.45;;;4.05;;
61572;SDS011;47465;43.094;12.434;2023-07-31T12:34:01;6.75;;;4.22;;
61572;SDS011;47465;43.094;12.434;2023-07-31T12:38:55;10.15;;;4.60;;
61572;SDS011;47465;43.094;12.434;2023-07-31T12:41:23;7.25;;;4.32;;
61572;SDS011;47465;43.094;12.434;2023-07-31T12:43:51;8.20;;;4.07;;
61572;SDS011;47465;43.094;12.434;2023-07-31T12:46:16;6.07;;;4.03;;
61572;SDS011;47465;43.094;12.434;2023-07-31T12:48:42;5.95;;;4.22;;
61572;SDS011;47465;43.094;12.434;2023-07-31T12:51:10;8.38;;;4.63;;
61572;SDS011;47465;43.094;12.434;2023-07-31T12:53:35;9.45;;;4.78;;
61572;SDS011;47465;43.094;12.434;2023-07-31T12:56:01;10.25;;;4.30;;
61572;SDS011;47465;43.094;12.434;2023-07-31T12:58:27;5.75;;;4.30;;
61572;SDS011;47465;43.094;12.434;2023-07-31T13:00:53;5.53;;;3.80;;
61572;SDS011;47465;43.094;12.434;2023-07-31T13:03:19;6.63;;;3.92;;
61572;SDS011;47465;43.094;12.434;2023-07-31T13:05:45;6.47;;;4.00;;
61572;SDS011;47465;43.094;12.434;2023-07-31T13:08:12;7.35;;;3.90;;
61572;SDS011;47465;43.094;12.434;2023-07-31T13:10:41;9.18;;;4.00;;
61572;SDS011;47465;43.094;12.434;2023-07-31T13:13:06;6.68;;;4.00;;
61572;SDS011;47465;43.094;12.434;2023-07-31T13:15:32;7.32;;;3.80;;
61572;SDS011;47465;43.094;12.434;2023-07-31T13:17:58;5.72;;;3.70;;
61572;SDS011;47465;43.094;12.434;2023-07-31T13:20:24;7.93;;;4.07;;
61572;SDS011;47465;43.094;12.434;2023-07-31T13:22:50;8.85;;;4.38;;
61572;SDS011;47465;43.094;12.434;2023-07-31T13:25:18;7.00;;;4.00;;
61572;SDS011;47465;43.094;12.434;2023-07-31T13:27:43;9.23;;;3.83;;
61572;SDS011;47465;43.094;12.434;2023-07-31T13:30:10;6.70;;;4.00;;
61572;SDS011;47465;43.094;12.434;2023-07-31T13:32:35;6.38;;;3.88;;
61572;SDS011;47465;43.094;12.434;2023-07-31T13:35:05;6.20;;;3.80;;
61572;SDS011;47465;43.094;12.434;2023-07-31T13:37:31;6.85;;;3.72;;
61572;SDS011;47465;43.094;12.434;2023-07-31T13:39:57;7.03;;;3.72;;
61572;SDS011;47465;43.094;12.434;2023-07-31T13:42:26;5.40;;;3.47;;
61572;SDS011;47465;43.094;12.434;2023-07-31T13:44:53;8.95;;;3.95;;
61572;SDS011;47465;43.094;12.434;2023-07-31T13:47:21;6.20;;;4.10;;
61572;SDS011;47465;43.094;12.434;2023-07-31T13:49:47;7.05;;;3.90;;
61572;SDS011;47465;43.094;12.434;2023-07-31T13:52:13;6.10;;;3.65;;
61572;SDS011;47465;43.094;12.434;2023-07-31T13:54:38;6.30;;;4.13;;
61572;SDS011;47465;43.094;12.434;2023-07-31T13:57:05;5.85;;;4.07;;
61572;SDS011;47465;43.094;12.434;2023-07-31T13:59:32;7.03;;;4.10;;
61572;SDS011;47465;43.094;12.434;2023-07-31T14:01:58;10.20;;;3.80;;
61572;SDS011;47465;43.094;12.434;2023-07-31T14:04:24;6.97;;;3.90;;
61572;SDS011;47465;43.094;12.434;2023-07-31T14:06:50;6.30;;;3.97;;
61572;SDS011;47465;43.094;12.434;2023-07-31T14:09:16;7.00;;;3.83;;
61572;SDS011;47465;43.094;12.434;2023-07-31T14:11:42;8.00;;;3.97;;
61572;SDS011;47465;43.094;12.434;2023-07-31T14:14:08;7.68;;;4.00;;
61572;SDS011;47465;43.094;12.434;2023-07-31T14:16:36;6.78;;;3.78;;
61572;SDS011;47465;43.094;12.434;2023-07-31T14:19:02;10.60;;;3.67;;
61572;SDS011;47465;43.094;12.434;2023-07-31T14:21:28;5.63;;;3.85;;
61572;SDS011;47465;43.094;12.434;2023-07-31T14:23:54;7.45;;;4.00;;
61572;SDS011;47465;43.094;12.434;2023-07-31T14:26:19;10.55;;;4.20;;
61572;SDS011;47465;43.094;12.434;2023-07-31T14:28:45;6.05;;;3.70;;
61572;SDS011;47465;43.094;12.434;2023-07-31T14:31:11;6.13;;;3.53;;
61572;SDS011;47465;43.094;12.434;2023-07-31T14:33:39;5.70;;;3.95;;
61572;SDS011;47465;43.094;12.434;2023-07-31T14:36:05;6.90;;;4.13;;
61572;SDS011;47465;43.094;12.434;2023-07-31T14:38:30;7.20;;;3.75;;
61572;SDS011;47465;43.094;12.434;2023-07-31T14:40:56;6.32;;;3.53;;